createdAt,value
2023-04-02T00:02:23.686Z,0.57
2023-04-02T00:05:17.945Z,1.27
2023-04-02T00:07:50.362Z,0.47
2023-04-02T00:10:47.941Z,0.77
2023-04-02T00:13:23.524Z,0.50
2023-04-02T00:15:58.307Z,0.60
2023-04-02T00:18:27.694Z,0.50
2023-04-02T00:21:14.013Z,0.93
2023-04-02T00:23:44.093Z,0.52
2023-04-02T00:26:30.388Z,0.65
2023-04-02T00:28:59.802Z,0.70
2023-04-02T00:31:28.493Z,0.40
2023-04-02T00:33:57.422Z,0.50
2023-04-02T00:36:27.972Z,0.50
2023-04-02T00:39:00.272Z,0.85
2023-04-02T00:41:32.163Z,1.37
2023-04-02T00:44:02.305Z,0.43
2023-04-02T00:46:35.849Z,0.60
2023-04-02T00:49:12.058Z,0.75
2023-04-02T00:51:51.708Z,0.93
2023-04-02T00:54:22.306Z,0.70
2023-04-02T00:56:55.681Z,1.77
2023-04-02T00:59:28.537Z,1.17
2023-04-02T01:02:21.136Z,0.93
2023-04-02T01:04:57.046Z,1.40
2023-04-02T01:07:33.950Z,0.75
2023-04-02T01:10:30.910Z,1.10
2023-04-02T01:13:14.530Z,0.65
2023-04-02T01:16:00.158Z,0.60
2023-04-02T01:18:51.533Z,0.57
2023-04-02T01:21:33.045Z,0.65
2023-04-02T01:24:09.644Z,0.60
2023-04-02T01:26:54.819Z,1.12
2023-04-02T01:29:22.586Z,0.82
2023-04-02T01:31:53.258Z,0.60
2023-04-02T01:34:26.445Z,1.42
2023-04-02T01:37:09.549Z,1.17
2023-04-02T01:39:57.877Z,0.40
2023-04-02T01:42:34.725Z,1.85
2023-04-02T01:45:05.806Z,1.45
2023-04-02T01:47:34.589Z,0.65
2023-04-02T01:50:06.913Z,0.82
2023-04-02T01:52:39.699Z,1.20
2023-04-02T01:55:14.373Z,0.62
2023-04-02T01:57:50.775Z,0.85
2023-04-02T02:00:20.429Z,0.95
2023-04-02T02:02:51.610Z,1.27
2023-04-02T02:05:27.658Z,0.80
2023-04-02T02:07:58.511Z,2.33
2023-04-02T02:10:35.948Z,1.70
2023-04-02T02:13:05.028Z,0.70
2023-04-02T02:15:35.163Z,1.37
2023-04-02T02:18:07.205Z,0.93
2023-04-02T02:20:36.983Z,1.52
2023-04-02T02:23:05.980Z,0.80
2023-04-02T02:25:37.359Z,1.00
2023-04-02T02:28:15.055Z,1.58
2023-04-02T02:30:48.969Z,0.60
2023-04-02T02:33:54.162Z,0.60
2023-04-02T02:36:46.796Z,0.65
2023-04-02T02:39:35.844Z,0.60
2023-04-02T02:42:21.202Z,1.12
2023-04-02T02:44:52.251Z,0.50
2023-04-02T02:47:27.127Z,1.85
2023-04-02T02:49:59.263Z,1.35
2023-04-02T02:52:32.278Z,0.80
2023-04-02T02:55:04.843Z,0.50
2023-04-02T02:57:38.725Z,1.42
2023-04-02T03:00:11.059Z,0.73
2023-04-02T03:02:42.155Z,1.10
2023-04-02T03:05:11.369Z,1.15
2023-04-02T03:07:39.677Z,0.68
2023-04-02T03:10:22.449Z,0.60
2023-04-02T03:13:21.235Z,1.37
2023-04-02T03:16:14.298Z,0.50
2023-04-02T03:18:46.105Z,1.02
2023-04-02T03:21:13.856Z,1.67
2023-04-02T03:23:45.747Z,0.50
2023-04-02T03:26:26.042Z,0.62
2023-04-02T03:28:59.916Z,0.40
2023-04-02T03:31:43.391Z,1.65
2023-04-02T03:34:49.936Z,0.68
2023-04-02T03:37:22.121Z,0.70
2023-04-02T03:40:08.463Z,1.35
2023-04-02T03:42:49.261Z,0.65
2023-04-02T03:45:25.120Z,1.73
2023-04-02T03:48:18.598Z,0.50
2023-04-02T03:51:00.348Z,1.25
2023-04-02T03:53:30.948Z,0.98
2023-04-02T03:56:00.331Z,0.77
2023-04-02T03:58:53.465Z,0.40
2023-04-02T04:01:36.656Z,1.48
2023-04-02T04:04:11.723Z,0.60
2023-04-02T04:06:45.032Z,1.70
2023-04-02T04:09:18.672Z,0.95
2023-04-02T04:11:51.268Z,1.33
2023-04-02T04:14:22.844Z,0.50
2023-04-02T04:16:55.504Z,1.33
2023-04-02T04:19:36.501Z,0.60
2023-04-02T04:22:35.157Z,0.70
2023-04-02T04:25:06.999Z,0.95
2023-04-02T04:27:55.029Z,0.65
2023-04-02T04:30:28.645Z,1.12
2023-04-02T04:33:05.417Z,1.10
2023-04-02T04:35:40.426Z,0.47
2023-04-02T04:38:28.844Z,1.08
2023-04-02T04:41:00.323Z,0.70
2023-04-02T04:43:58.511Z,0.55
2023-04-02T04:46:36.443Z,0.85
2023-04-02T04:49:12.930Z,1.10
2023-04-02T04:51:48.387Z,0.50
2023-04-02T04:54:17.551Z,0.80
2023-04-02T04:56:52.397Z,0.75
2023-04-02T04:59:27.083Z,0.47
2023-04-02T05:02:00.057Z,0.50
2023-04-02T05:04:40.458Z,1.77
2023-04-02T05:07:22.770Z,0.60
2023-04-02T05:09:56.938Z,0.40
2023-04-02T05:12:30.450Z,0.60
2023-04-02T05:15:02.815Z,0.50
2023-04-02T05:17:51.786Z,0.90
2023-04-02T05:20:25.533Z,0.50
2023-04-02T05:23:04.329Z,2.55
2023-04-02T05:25:34.448Z,0.40
2023-04-02T05:28:20.388Z,0.60
2023-04-02T05:31:04.455Z,1.25
2023-04-02T05:33:35.111Z,0.82
2023-04-02T05:36:10.773Z,0.40
2023-04-02T05:38:41.234Z,1.00
2023-04-02T05:41:28.459Z,0.65
2023-04-02T05:44:13.557Z,0.95
2023-04-02T05:46:53.359Z,0.73
2023-04-02T05:49:43.168Z,0.82
2023-04-02T05:52:18.766Z,1.62
2023-04-02T05:55:01.107Z,0.80
2023-04-02T05:58:13.577Z,0.90
2023-04-02T06:00:38.742Z,1.77
2023-04-02T06:03:25.411Z,0.85
2023-04-02T06:05:54.845Z,0.85
2023-04-02T06:08:28.706Z,1.00
2023-04-02T06:11:15.059Z,0.90
2023-04-02T06:13:42.999Z,0.65
2023-04-02T06:16:16.548Z,0.75
2023-04-02T06:18:45.703Z,0.85
2023-04-02T06:21:17.976Z,0.80
2023-04-02T06:23:56.353Z,0.93
2023-04-02T06:26:40.357Z,0.73
2023-04-02T06:29:22.362Z,1.00
2023-04-02T06:32:02.765Z,0.70
2023-04-02T06:34:33.103Z,0.80
2023-04-02T06:37:05.285Z,0.60
2023-04-02T06:39:33.271Z,0.65
2023-04-02T06:42:27.871Z,0.70
2023-04-02T06:44:56.046Z,0.60
2023-04-02T06:47:40.912Z,0.52
2023-04-02T06:50:18.091Z,0.73
2023-04-02T06:52:55.304Z,0.60
2023-04-02T06:56:03.678Z,0.75
2023-04-02T06:58:31.874Z,1.42
2023-04-02T07:00:59.861Z,0.60
2023-04-02T07:03:33.649Z,0.57
2023-04-02T07:06:04.013Z,0.68
2023-04-02T07:08:32.041Z,0.50
2023-04-02T07:10:59.928Z,0.98
2023-04-02T07:13:27.919Z,0.73
2023-04-02T07:15:56.906Z,0.60
2023-04-02T07:18:27.844Z,0.50
2023-04-02T07:20:56.000Z,0.40
2023-04-02T07:23:24.472Z,0.50
2023-04-02T07:25:54.810Z,0.73
2023-04-02T07:28:23.334Z,0.80
2023-04-02T07:30:52.275Z,1.05
2023-04-02T07:33:23.598Z,1.62
2023-04-02T07:35:52.571Z,1.80
2023-04-02T07:38:20.439Z,0.90
2023-04-02T07:40:48.576Z,1.23
2023-04-02T07:43:16.759Z,0.70
2023-04-02T07:45:44.703Z,0.90
2023-04-02T07:48:14.857Z,0.60
2023-04-02T07:50:43.114Z,0.60
2023-04-02T07:53:29.312Z,1.17
2023-04-02T07:55:58.769Z,0.68
2023-04-02T07:58:26.735Z,0.47
2023-04-02T08:00:54.737Z,0.95
2023-04-02T08:03:23.188Z,0.68
2023-04-02T08:05:56.334Z,0.68
2023-04-02T08:08:25.427Z,0.70
2023-04-02T08:10:53.400Z,2.35
2023-04-02T08:13:21.836Z,1.65
2023-04-02T08:15:49.901Z,1.05
2023-04-02T08:18:18.009Z,0.73
2023-04-02T08:20:45.999Z,0.60
2023-04-02T08:23:16.837Z,0.57
2023-04-02T08:25:45.684Z,0.50
2023-04-02T08:28:14.280Z,1.12
2023-04-02T08:30:43.209Z,0.52
2023-04-02T08:33:11.197Z,0.65
2023-04-02T08:35:39.575Z,0.55
2023-04-02T08:38:08.347Z,0.82
2023-04-02T08:40:40.126Z,0.40
2023-04-02T08:43:23.754Z,0.90
2023-04-02T08:46:27.265Z,1.40
2023-04-02T08:49:03.876Z,0.65
2023-04-02T08:51:38.101Z,1.15
2023-04-02T08:54:34.347Z,1.10
2023-04-02T08:57:08.293Z,0.65
2023-04-02T08:59:44.777Z,0.60
2023-04-02T09:02:42.107Z,0.98
2023-04-02T09:05:20.081Z,0.65
2023-04-02T09:07:51.169Z,0.60
2023-04-02T09:10:20.073Z,1.10
2023-04-02T09:12:53.424Z,0.75
2023-04-02T09:15:27.562Z,1.02
2023-04-02T09:18:21.884Z,0.98
2023-04-02T09:20:51.355Z,0.50
2023-04-02T09:23:25.530Z,0.43
2023-04-02T09:26:04.049Z,0.95
2023-04-02T09:28:32.986Z,1.62
2023-04-02T09:31:13.858Z,2.08
2023-04-02T09:33:50.762Z,0.45
2023-04-02T09:36:30.056Z,1.42
2023-04-02T09:39:07.839Z,1.90
2023-04-02T09:41:37.816Z,1.42
2023-04-02T09:44:22.539Z,0.70
2023-04-02T09:46:52.501Z,0.73
2023-04-02T09:49:22.831Z,0.50
2023-04-02T09:52:17.987Z,0.77
2023-04-02T09:54:46.024Z,0.60
2023-04-02T09:57:32.539Z,1.30
2023-04-02T10:00:14.598Z,1.20
2023-04-02T10:03:03.796Z,1.33
2023-04-02T10:05:40.720Z,0.40
2023-04-02T10:08:27.649Z,1.30
2023-04-02T10:11:02.486Z,0.50
2023-04-02T10:13:36.824Z,0.70
2023-04-02T10:16:10.835Z,0.47
2023-04-02T10:18:38.891Z,1.65
2023-04-02T10:21:08.007Z,0.98
2023-04-02T10:23:36.246Z,0.60
2023-04-02T10:26:39.405Z,0.65
2023-04-02T10:29:32.216Z,1.02
2023-04-02T10:32:13.723Z,0.50
2023-04-02T10:35:04.856Z,0.47
2023-04-02T10:38:23.037Z,0.73
2023-04-02T10:41:02.017Z,0.90
2023-04-02T10:43:29.875Z,0.70
2023-04-02T10:46:05.899Z,0.60
2023-04-02T10:48:39.784Z,0.37
2023-04-02T10:51:29.031Z,0.62
2023-04-02T10:54:20.161Z,0.85
2023-04-02T10:56:51.339Z,0.80
2023-04-02T10:59:26.036Z,0.55
2023-04-02T11:01:58.481Z,0.93
2023-04-02T11:04:39.062Z,1.02
2023-04-02T11:07:15.976Z,0.57
2023-04-02T11:09:48.200Z,1.30
2023-04-02T11:12:28.694Z,1.05
2023-04-02T11:14:57.944Z,0.90
2023-04-02T11:17:26.325Z,0.45
2023-04-02T11:19:54.242Z,0.50
2023-04-02T11:22:26.901Z,0.68
2023-04-02T11:24:57.486Z,0.85
2023-04-02T11:27:29.257Z,1.52
2023-04-02T11:30:04.168Z,0.60
2023-04-02T11:32:36.149Z,0.65
2023-04-02T11:35:24.277Z,0.57
2023-04-02T11:37:52.681Z,0.40
2023-04-02T11:40:20.463Z,0.40
2023-04-02T11:42:49.041Z,0.88
2023-04-02T11:45:22.707Z,1.37
2023-04-02T11:48:02.765Z,0.50
2023-04-02T11:50:35.560Z,1.10
2023-04-02T11:53:05.146Z,0.40
2023-04-02T11:55:35.019Z,1.10
2023-04-02T11:58:24.005Z,0.90
2023-04-02T12:01:09.142Z,1.25
2023-04-02T12:04:03.789Z,0.75
2023-04-02T12:07:12.063Z,0.50
2023-04-02T12:10:02.106Z,0.45
2023-04-02T12:12:39.191Z,0.75
2023-04-02T12:15:35.164Z,0.68
2023-04-02T12:18:24.333Z,0.50
2023-04-02T12:20:54.978Z,0.52
2023-04-02T12:23:27.445Z,1.40
2023-04-02T12:26:25.755Z,1.23
2023-04-02T12:28:53.659Z,0.57
2023-04-02T12:31:26.495Z,0.40
2023-04-02T12:33:54.595Z,0.88
2023-04-02T12:36:25.007Z,1.08
2023-04-02T12:38:56.537Z,1.10
2023-04-02T12:41:31.660Z,1.65
2023-04-02T12:44:01.372Z,2.37
2023-04-02T12:46:32.116Z,0.65
2023-04-02T12:49:08.075Z,0.60
2023-04-02T12:51:39.393Z,0.40
2023-04-02T12:54:08.447Z,0.50
2023-04-02T12:56:36.971Z,0.50
2023-04-02T12:59:04.838Z,0.68
2023-04-02T13:01:33.762Z,0.52
2023-04-02T13:04:10.412Z,1.20
2023-04-02T13:06:38.563Z,0.55
2023-04-02T13:09:37.449Z,0.50
2023-04-02T13:12:05.715Z,0.40
2023-04-02T13:14:33.773Z,0.40
2023-04-02T13:17:01.598Z,0.65
2023-04-02T13:19:34.617Z,0.65
2023-04-02T13:22:04.214Z,0.43
2023-04-02T13:24:34.168Z,0.40
2023-04-02T13:27:04.134Z,0.50
2023-04-02T13:29:37.067Z,0.40
2023-04-02T13:32:08.158Z,1.35
2023-04-02T13:34:36.057Z,0.37
2023-04-02T13:37:04.017Z,0.40
2023-04-02T13:39:32.258Z,0.52
2023-04-02T13:42:05.577Z,0.50
2023-04-02T13:44:35.829Z,0.40
2023-04-02T13:47:03.900Z,0.45
2023-04-02T13:49:33.377Z,1.02
2023-04-02T13:52:06.887Z,0.50
2023-04-02T13:54:59.725Z,1.45
2023-04-02T13:57:27.708Z,0.40
2023-04-02T13:59:55.735Z,0.50
2023-04-02T14:02:26.646Z,0.45
2023-04-02T14:05:05.258Z,0.30
2023-04-02T14:07:38.606Z,0.60
2023-04-02T14:10:12.594Z,0.55
2023-04-02T14:12:46.746Z,0.62
2023-04-02T14:15:33.414Z,0.50
2023-04-02T14:18:20.168Z,0.40
2023-04-02T14:21:10.076Z,0.82
2023-04-02T14:24:00.251Z,0.40
2023-04-02T14:26:59.121Z,0.40
2023-04-02T14:29:42.190Z,0.50
2023-04-02T14:32:18.991Z,0.40
2023-04-02T14:35:03.558Z,0.62
2023-04-02T14:38:19.191Z,0.40
2023-04-02T14:40:51.598Z,0.32
2023-04-02T14:43:19.476Z,0.50
2023-04-02T14:46:03.384Z,1.10
2023-04-02T14:48:53.392Z,0.37
2023-04-02T14:51:38.436Z,0.40
2023-04-02T14:54:21.938Z,0.73
2023-04-02T14:56:58.307Z,0.40
2023-04-02T14:59:58.609Z,0.50
2023-04-02T15:02:40.567Z,0.40
2023-04-02T15:05:19.088Z,0.40
2023-04-02T15:07:55.010Z,0.50
2023-04-02T15:10:32.303Z,0.40
2023-04-02T15:13:04.509Z,0.40
2023-04-02T15:15:50.694Z,0.32
2023-04-02T15:18:19.487Z,0.40
2023-04-02T15:20:47.357Z,0.50
2023-04-02T15:23:33.496Z,0.40
2023-04-02T15:26:19.765Z,0.40
2023-04-02T15:29:25.931Z,0.40
2023-04-02T15:32:09.149Z,0.98
2023-04-02T15:34:49.948Z,0.45
2023-04-02T15:37:32.420Z,0.40
2023-04-02T15:40:19.984Z,0.65
2023-04-02T15:43:01.325Z,0.62
2023-04-02T15:45:44.617Z,0.40
2023-04-02T15:48:23.930Z,0.35
2023-04-02T15:50:51.725Z,0.77
2023-04-02T15:53:47.270Z,0.30
2023-04-02T15:56:18.091Z,0.40
2023-04-02T15:58:57.625Z,0.40
2023-04-02T16:01:25.530Z,0.40
2023-04-02T16:04:31.386Z,0.85
2023-04-02T16:07:18.772Z,1.77
2023-04-02T16:10:19.204Z,0.37
2023-04-02T16:12:53.447Z,0.50
2023-04-02T16:16:04.125Z,0.62
2023-04-02T16:18:42.776Z,0.75
2023-04-02T16:21:15.891Z,0.40
2023-04-02T16:23:44.562Z,0.30
2023-04-02T16:26:18.066Z,0.50
2023-04-02T16:28:46.011Z,0.37
2023-04-02T16:31:40.352Z,0.50
2023-04-02T16:34:22.023Z,0.43
2023-04-02T16:36:58.298Z,0.40
2023-04-02T16:39:47.559Z,1.45
2023-04-02T16:42:50.308Z,0.45
2023-04-02T16:45:35.530Z,0.55
2023-04-02T16:48:15.378Z,0.40
2023-04-02T16:50:58.172Z,0.65
2023-04-02T16:53:58.383Z,0.40
2023-04-02T16:56:38.921Z,0.62
2023-04-02T16:59:28.877Z,0.50
2023-04-02T17:02:19.874Z,0.62
2023-04-02T17:04:54.422Z,18.27
2023-04-02T17:07:35.256Z,17.55
2023-04-02T17:10:31.273Z,3.40
2023-04-02T17:13:14.381Z,1.10
2023-04-02T17:15:44.281Z,1.02
2023-04-02T17:18:21.107Z,1.52
2023-04-02T17:20:49.639Z,0.98
2023-04-02T17:23:19.195Z,0.77
2023-04-02T17:25:54.191Z,0.60
2023-04-02T17:28:30.207Z,0.68
2023-04-02T17:30:59.872Z,0.75
2023-04-02T17:33:29.818Z,0.50
2023-04-02T17:36:09.833Z,1.30
2023-04-02T17:39:16.294Z,0.73
2023-04-02T17:42:02.729Z,0.50
2023-04-02T17:44:54.025Z,0.90
2023-04-02T17:47:24.977Z,1.08
2023-04-02T17:50:24.288Z,0.80
2023-04-02T17:53:07.360Z,0.55
2023-04-02T17:55:42.150Z,2.40
2023-04-02T17:58:27.736Z,0.60
2023-04-02T18:01:20.066Z,1.95
2023-04-02T18:03:54.236Z,1.12
2023-04-02T18:06:43.042Z,0.50
2023-04-02T18:09:29.644Z,0.50
2023-04-02T18:12:14.757Z,0.70
2023-04-02T18:15:06.489Z,0.73
2023-04-02T18:17:43.498Z,0.80
2023-04-02T18:20:40.823Z,1.55
2023-04-02T18:23:55.008Z,0.90
2023-04-02T18:26:43.968Z,1.67
2023-04-02T18:29:46.017Z,0.98
2023-04-02T18:32:30.548Z,0.60
2023-04-02T18:35:21.647Z,0.65
2023-04-02T18:38:04.702Z,0.77
2023-04-02T18:40:41.599Z,0.70
2023-04-02T18:43:26.226Z,0.80
2023-04-02T18:46:15.845Z,1.45
2023-04-02T18:48:49.885Z,1.08
2023-04-02T18:51:24.467Z,1.33
2023-04-02T18:53:58.400Z,1.20
2023-04-02T18:56:28.049Z,0.95
2023-04-02T18:59:05.386Z,1.08
2023-04-02T19:01:40.621Z,0.80
2023-04-02T19:04:19.145Z,1.10
2023-04-02T19:06:53.735Z,0.98
2023-04-02T19:09:48.208Z,0.90
2023-04-02T19:12:21.938Z,0.88
2023-04-02T19:14:52.404Z,0.88
2023-04-02T19:17:40.719Z,0.68
2023-04-02T19:20:34.321Z,0.60
2023-04-02T19:23:02.964Z,0.98
2023-04-02T19:25:52.199Z,0.90
2023-04-02T19:28:31.677Z,0.77
2023-04-02T19:31:13.110Z,1.23
2023-04-02T19:33:43.894Z,0.60
2023-04-02T19:36:14.979Z,0.80
2023-04-02T19:39:06.067Z,0.70
2023-04-02T19:41:50.824Z,0.70
2023-04-02T19:44:19.670Z,0.70
2023-04-02T19:46:47.927Z,0.60
2023-04-02T19:49:24.171Z,0.50
2023-04-02T19:51:52.203Z,0.82
2023-04-02T19:54:20.418Z,0.85
2023-04-02T19:56:48.537Z,0.80
2023-04-02T19:59:18.573Z,0.75
2023-04-02T20:01:47.742Z,1.20
2023-04-02T20:04:16.192Z,0.75
2023-04-02T20:06:44.150Z,0.70
2023-04-02T20:09:12.265Z,0.82
2023-04-02T20:11:40.469Z,0.85
2023-04-02T20:14:08.391Z,1.25
2023-04-02T20:16:38.141Z,0.90
2023-04-02T20:19:06.164Z,0.85
2023-04-02T20:21:39.337Z,1.10
2023-04-02T20:24:08.804Z,1.10
2023-04-02T20:26:37.905Z,0.90
2023-04-02T20:29:05.945Z,1.55
2023-04-02T20:31:34.280Z,1.45
2023-04-02T20:34:03.819Z,1.30
2023-04-02T20:36:32.864Z,1.50
2023-04-02T20:39:00.906Z,1.42
2023-04-02T20:41:29.187Z,1.67
2023-04-02T20:43:57.824Z,1.42
2023-04-02T20:46:26.717Z,1.60
2023-04-02T20:48:54.770Z,1.62
2023-04-02T20:51:23.168Z,1.77
2023-04-02T20:53:51.081Z,1.70
2023-04-02T20:56:20.374Z,1.60
2023-04-02T20:58:48.289Z,1.50
2023-04-02T21:01:24.417Z,1.92
2023-04-02T21:04:03.748Z,1.85
2023-04-02T21:06:34.980Z,2.00
2023-04-02T21:09:08.668Z,1.62
2023-04-02T21:11:38.127Z,2.60
2023-04-02T21:14:06.299Z,1.77
2023-04-02T21:16:34.609Z,2.08
2023-04-02T21:19:06.215Z,1.65
2023-04-02T21:21:34.854Z,2.42
2023-04-02T21:24:05.676Z,2.47
2023-04-02T21:26:36.969Z,1.87
2023-04-02T21:29:05.743Z,2.22
2023-04-02T21:31:42.138Z,2.17
2023-04-02T21:34:13.668Z,3.05
2023-04-02T21:36:47.100Z,2.83
2023-04-02T21:39:23.368Z,2.42
2023-04-02T21:41:53.406Z,2.33
2023-04-02T21:44:23.313Z,1.95
2023-04-02T21:46:53.651Z,2.55
2023-04-02T21:49:23.926Z,2.25
2023-04-02T21:51:53.019Z,2.42
2023-04-02T21:54:21.156Z,2.40
2023-04-02T21:56:49.681Z,2.60
2023-04-02T21:59:19.028Z,2.65
2023-04-02T22:01:49.871Z,3.47
2023-04-02T22:04:21.177Z,3.72
2023-04-02T22:06:50.258Z,3.33
2023-04-02T22:09:21.674Z,3.40
2023-04-02T22:11:53.241Z,3.17
2023-04-02T22:14:21.751Z,2.83
2023-04-02T22:16:49.832Z,3.05
2023-04-02T22:19:17.883Z,2.90
2023-04-02T22:21:47.215Z,2.50
2023-04-02T22:24:17.374Z,2.33
2023-04-02T22:26:45.780Z,2.30
2023-04-02T22:29:13.813Z,2.25
2023-04-02T22:31:41.893Z,2.70
2023-04-02T22:34:09.892Z,2.03
2023-04-02T22:36:38.137Z,3.95
2023-04-02T22:39:08.093Z,3.42
2023-04-02T22:41:36.071Z,2.90
2023-04-02T22:44:04.140Z,1.95
2023-04-02T22:46:32.801Z,1.60
2023-04-02T22:49:00.895Z,2.28
2023-04-02T22:51:29.207Z,2.20
2023-04-02T22:53:58.194Z,2.00
2023-04-02T22:56:33.226Z,1.80
2023-04-02T22:59:01.210Z,2.17
2023-04-02T23:01:34.560Z,1.95
2023-04-02T23:04:02.757Z,2.60
2023-04-02T23:06:30.948Z,2.25
2023-04-02T23:08:59.333Z,2.33
2023-04-02T23:11:28.947Z,2.70
2023-04-02T23:13:58.833Z,2.72
2023-04-02T23:16:29.072Z,3.05
2023-04-02T23:18:57.388Z,2.75
2023-04-02T23:21:26.399Z,2.47
2023-04-02T23:23:55.191Z,2.95
2023-04-02T23:26:33.753Z,3.60
2023-04-02T23:29:03.173Z,3.35
2023-04-02T23:31:31.295Z,3.53
2023-04-02T23:33:59.920Z,4.00
2023-04-02T23:36:31.192Z,3.85
2023-04-02T23:39:05.630Z,3.35
2023-04-02T23:41:33.577Z,3.78
2023-04-02T23:44:01.699Z,3.37
2023-04-02T23:46:30.840Z,2.87
2023-04-02T23:49:00.146Z,2.78
2023-04-02T23:51:29.308Z,2.87
2023-04-02T23:53:57.580Z,4.00
2023-04-02T23:56:27.238Z,4.18
2023-04-02T23:58:55.242Z,4.57
